createdAt,value
2019-03-06T00:01:23.285Z,1.80
2019-03-06T00:03:50.443Z,1.87
2019-03-06T00:06:17.538Z,1.80
2019-03-06T00:08:44.645Z,1.43
2019-03-06T00:11:11.783Z,1.87
2019-03-06T00:13:38.896Z,1.87
2019-03-06T00:16:05.972Z,1.70
2019-03-06T00:18:33.062Z,2.40
2019-03-06T00:21:00.161Z,2.13
2019-03-06T00:23:27.260Z,2.10
2019-03-06T00:25:54.376Z,1.87
2019-03-06T00:28:21.430Z,1.70
2019-03-06T00:30:48.573Z,1.77
2019-03-06T00:33:15.672Z,1.80
2019-03-06T00:35:44.956Z,1.80
2019-03-06T00:38:12.042Z,2.00
2019-03-06T00:40:45.322Z,1.93
2019-03-06T00:43:12.414Z,1.80
2019-03-06T00:45:39.533Z,2.20
2019-03-06T00:48:06.617Z,2.00
2019-03-06T00:50:33.748Z,1.90
2019-03-06T00:53:00.870Z,1.53
2019-03-06T00:55:27.978Z,1.90
2019-03-06T00:57:55.050Z,1.97
2019-03-06T01:00:22.313Z,1.80
2019-03-06T01:02:49.392Z,1.87
2019-03-06T01:05:16.513Z,2.00
2019-03-06T01:07:43.592Z,1.70
2019-03-06T01:10:10.689Z,1.40
2019-03-06T01:12:37.796Z,1.90
2019-03-06T01:15:04.962Z,1.90
2019-03-06T01:17:32.056Z,1.83
2019-03-06T01:19:59.146Z,1.90
2019-03-06T01:22:26.216Z,1.90
2019-03-06T01:24:53.317Z,1.80
2019-03-06T01:27:20.405Z,1.93
2019-03-06T01:29:47.526Z,1.50
2019-03-06T01:32:14.625Z,2.07
2019-03-06T01:34:46.394Z,1.70
2019-03-06T01:37:21.934Z,1.50
2019-03-06T01:39:58.561Z,1.90
2019-03-06T01:42:32.149Z,1.33
2019-03-06T01:45:02.259Z,1.60
2019-03-06T01:47:29.343Z,1.80
2019-03-06T01:49:56.555Z,1.70
2019-03-06T01:52:23.620Z,1.50
2019-03-06T01:54:50.728Z,1.93
2019-03-06T01:57:17.828Z,1.57
2019-03-06T01:59:44.894Z,1.90
2019-03-06T02:02:11.997Z,1.60
2019-03-06T02:04:39.060Z,1.70
2019-03-06T02:07:07.141Z,1.70
2019-03-06T02:09:34.353Z,1.40
2019-03-06T02:12:01.436Z,1.50
2019-03-06T02:14:28.533Z,1.30
2019-03-06T02:16:55.641Z,1.93
2019-03-06T02:19:22.728Z,1.97
2019-03-06T02:21:49.820Z,1.60
2019-03-06T02:24:16.920Z,1.70
2019-03-06T02:26:44.000Z,1.50
2019-03-06T02:29:11.093Z,1.43
2019-03-06T02:31:38.204Z,1.67
2019-03-06T02:34:05.269Z,2.00
2019-03-06T02:36:32.347Z,1.80
2019-03-06T02:38:59.445Z,1.53
2019-03-06T02:41:26.580Z,1.57
2019-03-06T02:43:53.695Z,1.60
2019-03-06T02:46:20.770Z,1.63
2019-03-06T02:48:47.864Z,1.70
2019-03-06T02:51:14.942Z,1.70
2019-03-06T02:53:42.030Z,1.83
2019-03-06T02:56:09.110Z,1.70
2019-03-06T02:58:41.770Z,1.80
2019-03-06T03:01:16.374Z,1.60
2019-03-06T03:03:48.913Z,1.63
2019-03-06T03:06:20.672Z,1.70
2019-03-06T03:08:47.761Z,1.90
2019-03-06T03:11:14.865Z,1.53
2019-03-06T03:13:41.987Z,1.80
2019-03-06T03:16:09.081Z,1.90
2019-03-06T03:18:36.189Z,1.70
2019-03-06T03:21:03.329Z,1.77
2019-03-06T03:23:30.409Z,1.93
2019-03-06T03:25:57.481Z,1.90
2019-03-06T03:28:24.560Z,1.80
2019-03-06T03:30:51.673Z,1.70
2019-03-06T03:33:18.806Z,2.20
2019-03-06T03:35:45.889Z,1.80
2019-03-06T03:38:12.972Z,1.80
2019-03-06T03:40:40.050Z,1.80
2019-03-06T03:43:07.113Z,1.60
2019-03-06T03:45:34.230Z,2.00
2019-03-06T03:48:01.337Z,1.90
2019-03-06T03:50:28.422Z,1.80
2019-03-06T03:52:55.518Z,2.03
2019-03-06T03:55:22.627Z,1.80
2019-03-06T03:57:49.717Z,1.90
2019-03-06T04:00:16.821Z,2.00
2019-03-06T04:02:43.935Z,1.83
2019-03-06T04:05:11.049Z,2.00
2019-03-06T04:07:38.136Z,1.90
2019-03-06T04:10:05.430Z,1.90
2019-03-06T04:12:34.214Z,2.23
2019-03-06T04:14:59.660Z,2.00
2019-03-06T04:17:26.785Z,2.07
2019-03-06T04:19:53.869Z,1.90
2019-03-06T04:22:20.959Z,1.93
2019-03-06T04:24:48.083Z,1.90
2019-03-06T04:27:15.213Z,1.83
2019-03-06T04:29:42.337Z,2.27
2019-03-06T04:32:09.429Z,2.33
2019-03-06T04:34:36.524Z,1.90
2019-03-06T04:37:03.618Z,1.87
2019-03-06T04:39:30.796Z,2.00
2019-03-06T04:41:57.892Z,2.10
2019-03-06T04:44:24.984Z,1.80
2019-03-06T04:46:52.084Z,1.80
2019-03-06T04:49:19.171Z,2.00
2019-03-06T04:51:46.237Z,2.30
2019-03-06T04:54:13.358Z,2.00
2019-03-06T04:56:40.428Z,1.80
2019-03-06T04:59:07.536Z,2.37
2019-03-06T05:01:34.620Z,2.17
2019-03-06T05:04:01.721Z,2.27
2019-03-06T05:06:28.822Z,1.83
2019-03-06T05:08:55.906Z,2.40
2019-03-06T05:11:23.009Z,2.30
2019-03-06T05:13:50.105Z,1.90
2019-03-06T05:16:17.180Z,2.60
2019-03-06T05:18:47.787Z,2.00
2019-03-06T05:21:14.883Z,2.10
2019-03-06T05:23:41.969Z,2.13
2019-03-06T05:26:09.042Z,2.07
2019-03-06T05:28:36.128Z,2.00
2019-03-06T05:31:03.272Z,2.40
2019-03-06T05:33:30.333Z,2.30
2019-03-06T05:36:24.389Z,2.20
2019-03-06T05:39:03.973Z,2.53
2019-03-06T05:41:31.099Z,2.50
2019-03-06T05:43:58.224Z,2.17
2019-03-06T05:46:25.304Z,2.47
2019-03-06T05:48:52.405Z,2.37
2019-03-06T05:51:19.522Z,2.40
2019-03-06T05:53:46.618Z,2.13
2019-03-06T05:56:13.709Z,2.57
2019-03-06T05:58:47.453Z,2.20
2019-03-06T06:01:14.573Z,2.23
2019-03-06T06:03:41.673Z,3.23
2019-03-06T06:06:08.782Z,2.60
2019-03-06T06:08:35.871Z,2.27
2019-03-06T06:11:03.008Z,2.80
2019-03-06T06:13:31.025Z,2.53
2019-03-06T06:15:57.246Z,2.67
2019-03-06T06:18:24.360Z,2.40
2019-03-06T06:20:56.077Z,2.60
2019-03-06T06:23:28.877Z,2.70
2019-03-06T06:25:55.956Z,2.77
2019-03-06T06:28:23.072Z,2.47
2019-03-06T06:30:50.172Z,2.97
2019-03-06T06:33:17.224Z,3.00
2019-03-06T06:35:44.332Z,2.60
2019-03-06T06:38:11.421Z,2.10
2019-03-06T06:40:38.516Z,2.10
2019-03-06T06:43:05.609Z,2.37
2019-03-06T06:45:32.747Z,2.73
2019-03-06T06:48:06.552Z,3.03
2019-03-06T06:50:33.693Z,2.33
2019-03-06T06:53:26.888Z,2.63
2019-03-06T06:56:36.041Z,2.87
2019-03-06T06:59:08.422Z,2.80
2019-03-06T07:01:53.690Z,2.63
2019-03-06T07:04:35.009Z,2.97
2019-03-06T07:07:07.493Z,2.80
2019-03-06T07:09:43.097Z,3.17
2019-03-06T07:12:16.735Z,3.03
2019-03-06T07:14:50.528Z,2.93
2019-03-06T07:17:33.093Z,2.90
2019-03-06T07:20:12.741Z,3.03
2019-03-06T07:22:45.410Z,3.13
2019-03-06T07:25:47.963Z,2.30
2019-03-06T07:28:20.637Z,2.60
2019-03-06T07:32:58.485Z,2.73
2019-03-06T07:35:47.824Z,3.00
2019-03-06T07:38:14.951Z,2.67
2019-03-06T07:40:47.840Z,3.17
2019-03-06T07:43:19.568Z,2.97
2019-03-06T07:45:57.357Z,3.10
2019-03-06T07:48:39.297Z,3.07
2019-03-06T07:51:20.063Z,3.00
2019-03-06T07:54:24.957Z,2.83
2019-03-06T07:56:55.877Z,3.00
2019-03-06T07:59:22.957Z,2.83
2019-03-06T08:01:58.701Z,3.00
2019-03-06T08:04:25.802Z,2.67
2019-03-06T08:06:57.672Z,2.47
2019-03-06T08:09:24.768Z,2.57
2019-03-06T08:11:57.593Z,2.50
2019-03-06T08:14:30.501Z,2.43
2019-03-06T08:17:09.172Z,2.80
2019-03-06T08:19:45.832Z,2.93
2019-03-06T08:22:22.545Z,2.50
2019-03-06T08:24:55.224Z,2.67
2019-03-06T08:27:22.326Z,2.70
2019-03-06T08:29:49.400Z,2.20
2019-03-06T08:32:21.160Z,2.73
2019-03-06T08:34:48.605Z,2.30
2019-03-06T08:37:17.509Z,2.40
2019-03-06T08:39:42.859Z,2.23
2019-03-06T08:42:09.972Z,2.70
2019-03-06T08:44:37.078Z,2.43
2019-03-06T08:47:10.594Z,2.17
2019-03-06T08:49:45.177Z,2.17
2019-03-06T08:52:18.845Z,2.43
2019-03-06T08:54:53.397Z,2.40
2019-03-06T08:57:26.073Z,2.10
2019-03-06T08:59:58.661Z,2.17
2019-03-06T09:03:02.394Z,2.30
2019-03-06T09:05:38.996Z,2.07
2019-03-06T09:08:13.553Z,1.90
2019-03-06T09:10:46.180Z,1.83
2019-03-06T09:13:19.132Z,2.30
2019-03-06T09:15:51.972Z,1.97
2019-03-06T09:18:24.647Z,2.37
2019-03-06T09:20:56.401Z,1.73
2019-03-06T09:23:29.129Z,2.30
2019-03-06T09:26:02.000Z,1.80
2019-03-06T09:28:33.785Z,2.20
2019-03-06T09:31:11.436Z,2.00
2019-03-06T09:33:46.973Z,2.10
2019-03-06T09:36:20.631Z,1.83
2019-03-06T09:38:52.356Z,1.80
2019-03-06T09:41:24.069Z,2.10
2019-03-06T09:43:58.772Z,1.90
2019-03-06T09:46:33.441Z,1.90
2019-03-06T09:49:11.563Z,1.80
2019-03-06T09:51:40.787Z,1.87
2019-03-06T09:54:14.477Z,1.83
2019-03-06T09:56:49.201Z,1.53
2019-03-06T09:59:21.708Z,1.50
2019-03-06T10:01:53.446Z,1.70
2019-03-06T10:04:28.985Z,1.67
2019-03-06T10:07:01.637Z,1.73
2019-03-06T10:09:34.541Z,2.00
2019-03-06T10:12:24.152Z,1.33
2019-03-06T10:14:55.913Z,1.60
2019-03-06T10:17:30.312Z,1.63
2019-03-06T10:20:00.450Z,1.57
2019-03-06T10:22:27.549Z,1.63
2019-03-06T10:24:55.680Z,1.67
2019-03-06T10:27:21.730Z,1.40
2019-03-06T10:29:48.844Z,1.50
2019-03-06T10:32:15.946Z,1.30
2019-03-06T10:34:43.048Z,1.53
2019-03-06T10:37:10.179Z,1.50
2019-03-06T10:39:37.275Z,2.10
2019-03-06T10:42:04.374Z,1.60
2019-03-06T10:44:31.489Z,1.80
2019-03-06T10:46:58.589Z,1.80
2019-03-06T10:49:25.725Z,1.33
2019-03-06T10:51:52.841Z,1.27
2019-03-06T10:54:19.941Z,1.50
2019-03-06T10:56:47.036Z,1.70
2019-03-06T10:59:14.129Z,1.40
2019-03-06T11:01:41.271Z,1.50
2019-03-06T11:04:47.004Z,1.67
2019-03-06T11:07:14.122Z,1.50
2019-03-06T11:09:41.228Z,1.67
2019-03-06T11:12:08.352Z,1.30
2019-03-06T11:14:35.493Z,1.23
2019-03-06T11:17:02.622Z,1.53
2019-03-06T11:19:29.749Z,1.33
2019-03-06T11:21:56.830Z,1.40
2019-03-06T11:24:23.934Z,1.20
2019-03-06T11:26:51.038Z,1.20
2019-03-06T11:29:19.420Z,1.50
2019-03-06T11:31:45.255Z,1.60
2019-03-06T11:34:12.353Z,1.50
2019-03-06T11:36:39.485Z,1.23
2019-03-06T11:39:08.624Z,1.37
2019-03-06T11:41:35.737Z,1.50
2019-03-06T11:44:02.840Z,1.30
2019-03-06T11:46:29.950Z,1.30
2019-03-06T11:48:57.055Z,1.10
2019-03-06T11:51:24.161Z,0.90
2019-03-06T11:53:51.253Z,1.03
2019-03-06T11:56:18.337Z,1.40
2019-03-06T11:58:45.461Z,1.13
2019-03-06T12:01:14.611Z,1.10
2019-03-06T12:03:41.720Z,0.93
2019-03-06T12:06:08.848Z,1.00
2019-03-06T12:08:45.141Z,1.07
2019-03-06T12:11:03.100Z,1.13
2019-03-06T12:13:30.222Z,0.93
2019-03-06T12:15:57.308Z,0.90
2019-03-06T12:18:24.439Z,1.23
2019-03-06T12:20:51.725Z,1.00
2019-03-06T12:23:19.078Z,0.80
2019-03-06T12:25:46.717Z,0.80
2019-03-06T12:28:14.685Z,0.90
2019-03-06T12:30:41.978Z,0.80
2019-03-06T12:33:09.294Z,0.90
2019-03-06T12:35:36.443Z,0.90
2019-03-06T12:38:03.572Z,0.80
2019-03-06T12:40:30.746Z,0.90
2019-03-06T12:42:57.901Z,1.30
2019-03-06T12:45:25.009Z,1.00
2019-03-06T12:47:55.468Z,1.50
2019-03-06T12:50:21.014Z,1.20
2019-03-06T12:52:48.117Z,1.03
2019-03-06T12:55:15.239Z,1.00
2019-03-06T12:57:42.333Z,1.00
2019-03-06T13:00:16.185Z,0.90
2019-03-06T13:02:42.565Z,0.90
2019-03-06T13:05:09.741Z,1.03
2019-03-06T13:07:36.848Z,1.00
2019-03-06T13:10:04.550Z,1.40
2019-03-06T13:12:31.657Z,1.10
2019-03-06T13:14:58.737Z,1.57
2019-03-06T13:17:25.856Z,1.03
2019-03-06T13:19:52.957Z,0.90
2019-03-06T13:22:20.060Z,0.90
2019-03-06T13:24:47.168Z,0.93
2019-03-06T13:27:14.269Z,1.00
2019-03-06T13:29:41.348Z,1.13
2019-03-06T13:32:11.730Z,0.93
2019-03-06T13:34:39.191Z,0.90
2019-03-06T13:37:06.303Z,0.90
2019-03-06T13:39:33.440Z,1.30
2019-03-06T13:42:00.522Z,1.07
2019-03-06T13:44:27.663Z,0.93
2019-03-06T13:46:54.778Z,1.07
2019-03-06T13:49:21.880Z,1.10
2019-03-06T13:51:48.973Z,0.83
2019-03-06T13:54:16.124Z,1.00
2019-03-06T13:56:43.269Z,1.00
2019-03-06T13:59:10.381Z,1.00
2019-03-06T14:01:37.487Z,0.90
2019-03-06T14:04:04.607Z,0.97
2019-03-06T14:06:31.678Z,0.97
2019-03-06T14:08:58.812Z,1.10
2019-03-06T14:11:25.933Z,1.00
2019-03-06T14:13:53.125Z,0.80
2019-03-06T14:16:20.245Z,1.03
2019-03-06T14:18:47.335Z,0.70
2019-03-06T14:21:14.432Z,0.80
2019-03-06T14:23:41.575Z,0.57
2019-03-06T14:26:08.664Z,0.60
2019-03-06T14:28:35.767Z,0.83
2019-03-06T14:31:03.072Z,1.07
2019-03-06T14:33:30.161Z,0.90
2019-03-06T14:35:57.279Z,0.80
2019-03-06T14:38:24.378Z,1.10
2019-03-06T14:40:51.590Z,0.97
2019-03-06T14:43:20.668Z,0.70
2019-03-06T14:45:45.805Z,1.00
2019-03-06T14:48:12.893Z,0.53
2019-03-06T14:50:39.984Z,0.90
2019-03-06T14:53:07.078Z,0.80
2019-03-06T14:55:34.237Z,0.70
2019-03-06T14:58:01.356Z,0.67
2019-03-06T15:00:28.458Z,0.63
2019-03-06T15:02:55.575Z,0.77
2019-03-06T15:05:22.692Z,0.80
2019-03-06T15:07:49.794Z,0.67
2019-03-06T15:10:16.936Z,0.80
2019-03-06T15:12:44.068Z,0.77
2019-03-06T15:15:12.433Z,0.67
2019-03-06T15:17:39.566Z,0.90
2019-03-06T15:20:08.846Z,0.90
2019-03-06T15:22:38.799Z,0.67
2019-03-06T15:25:03.142Z,0.60
2019-03-06T15:27:30.233Z,0.90
2019-03-06T15:29:57.316Z,0.70
2019-03-06T15:32:24.422Z,1.00
2019-03-06T15:34:51.542Z,0.60
2019-03-06T15:37:18.660Z,0.70
2019-03-06T15:39:48.749Z,0.77
2019-03-06T15:42:13.816Z,0.80
2019-03-06T15:44:40.919Z,0.83
2019-03-06T15:47:08.032Z,0.73
2019-03-06T15:49:35.133Z,0.60
2019-03-06T15:52:02.259Z,0.60
2019-03-06T15:54:29.366Z,0.70
2019-03-06T15:56:56.457Z,0.80
2019-03-06T15:59:23.550Z,0.73
2019-03-06T16:01:50.637Z,0.77
2019-03-06T16:04:17.756Z,0.60
2019-03-06T16:06:53.612Z,0.70
2019-03-06T16:09:11.946Z,0.50
2019-03-06T16:11:39.085Z,1.00
2019-03-06T16:14:06.197Z,0.87
2019-03-06T16:16:33.341Z,0.90
2019-03-06T16:19:00.422Z,0.90
2019-03-06T16:21:27.616Z,0.83
2019-03-06T16:23:54.737Z,0.90
2019-03-06T16:26:21.829Z,1.10
2019-03-06T16:28:48.929Z,0.90
2019-03-06T16:31:16.012Z,0.60
2019-03-06T16:33:43.108Z,0.80
2019-03-06T16:36:10.200Z,0.87
2019-03-06T16:38:37.313Z,0.93
2019-03-06T16:41:04.401Z,0.97
2019-03-06T16:43:31.506Z,0.77
2019-03-06T16:45:58.609Z,0.90
2019-03-06T16:48:25.711Z,0.93
2019-03-06T16:50:52.796Z,0.80
2019-03-06T16:53:19.948Z,0.87
2019-03-06T16:55:47.039Z,0.83
2019-03-06T16:58:14.136Z,1.30
2019-03-06T17:00:41.243Z,1.10
2019-03-06T17:03:08.402Z,1.17
2019-03-06T17:05:35.580Z,1.00
2019-03-06T17:08:02.732Z,1.10
2019-03-06T17:10:29.861Z,1.03
2019-03-06T17:12:56.945Z,0.70
2019-03-06T17:15:24.170Z,1.20
2019-03-06T17:17:51.302Z,1.13
2019-03-06T17:20:19.940Z,1.20
2019-03-06T17:22:47.233Z,1.10
2019-03-06T17:25:14.465Z,0.97
2019-03-06T17:27:41.652Z,1.27
2019-03-06T17:30:10.473Z,1.00
2019-03-06T17:32:42.213Z,1.10
2019-03-06T17:35:09.305Z,0.93
2019-03-06T17:37:36.417Z,1.70
2019-03-06T17:40:03.610Z,1.17
2019-03-06T17:42:30.742Z,1.20
2019-03-06T17:44:57.866Z,1.20
2019-03-06T17:47:24.977Z,1.63
2019-03-06T17:49:52.064Z,1.03
2019-03-06T17:52:19.190Z,1.10
2019-03-06T17:54:46.284Z,1.17
2019-03-06T17:57:13.358Z,1.33
2019-03-06T17:59:40.479Z,1.47
2019-03-06T18:02:07.597Z,1.50
2019-03-06T18:04:34.712Z,1.20
2019-03-06T18:07:01.804Z,1.30
2019-03-06T18:09:28.906Z,1.30
2019-03-06T18:11:55.992Z,1.30
2019-03-06T18:14:23.102Z,1.20
2019-03-06T18:16:50.196Z,1.50
2019-03-06T18:19:17.345Z,1.20
2019-03-06T18:21:44.449Z,1.40
2019-03-06T18:24:11.571Z,1.30
2019-03-06T18:26:38.687Z,1.40
2019-03-06T18:29:05.877Z,1.53
2019-03-06T18:31:33.041Z,1.40
2019-03-06T18:34:00.162Z,1.10
2019-03-06T18:36:27.292Z,1.10
2019-03-06T18:38:54.405Z,1.40
2019-03-06T18:41:21.497Z,1.30
2019-03-06T18:43:48.674Z,1.43
2019-03-06T18:46:15.796Z,1.20
2019-03-06T18:48:42.958Z,1.63
2019-03-06T18:51:10.039Z,1.40
2019-03-06T18:53:37.224Z,1.20
2019-03-06T18:56:04.343Z,1.50
2019-03-06T18:58:31.445Z,1.50
2019-03-06T19:00:58.578Z,1.30
2019-03-06T19:03:25.708Z,1.40
2019-03-06T19:05:52.857Z,1.40
2019-03-06T19:08:20.034Z,1.10
2019-03-06T19:10:47.147Z,1.30
2019-03-06T19:13:14.261Z,1.50
2019-03-06T19:15:41.389Z,1.20
2019-03-06T19:18:08.553Z,1.40
2019-03-06T19:20:35.704Z,1.40
2019-03-06T19:23:02.817Z,1.30
2019-03-06T19:25:31.278Z,1.23
2019-03-06T19:27:57.282Z,1.20
2019-03-06T19:30:24.408Z,1.23
2019-03-06T19:32:51.515Z,1.63
2019-03-06T19:35:19.262Z,1.30
2019-03-06T19:37:46.335Z,1.50
2019-03-06T19:40:13.704Z,1.17
2019-03-06T19:42:40.818Z,1.50
2019-03-06T19:45:08.660Z,1.60
2019-03-06T19:47:35.745Z,1.30
2019-03-06T19:50:02.909Z,1.33
2019-03-06T19:52:29.993Z,1.20
2019-03-06T19:54:57.096Z,1.37
2019-03-06T19:57:24.188Z,1.57
2019-03-06T19:59:51.300Z,1.40
2019-03-06T20:02:18.405Z,1.40
2019-03-06T20:04:45.535Z,1.43
2019-03-06T20:07:12.672Z,1.30
2019-03-06T20:09:39.784Z,1.20
2019-03-06T20:12:08.580Z,1.23
2019-03-06T20:14:34.224Z,1.87
2019-03-06T20:17:01.336Z,1.40
2019-03-06T20:19:28.452Z,1.60
2019-03-06T20:21:55.573Z,1.47
2019-03-06T20:24:22.658Z,1.53
2019-03-06T20:26:49.736Z,1.33
2019-03-06T20:29:16.849Z,1.23
2019-03-06T20:31:43.936Z,1.43
2019-03-06T20:34:11.013Z,1.70
2019-03-06T20:36:38.134Z,1.00
2019-03-06T20:39:06.549Z,0.90
2019-03-06T20:41:33.686Z,1.40
2019-03-06T20:44:00.784Z,1.30
2019-03-06T20:46:27.870Z,1.20
2019-03-06T20:48:54.985Z,1.40
2019-03-06T20:51:22.075Z,1.40
2019-03-06T20:53:49.141Z,1.40
2019-03-06T20:56:16.244Z,1.57
2019-03-06T20:58:43.333Z,1.50
2019-03-06T21:01:10.473Z,1.37
2019-03-06T21:03:37.580Z,1.40
2019-03-06T21:06:04.685Z,1.20
2019-03-06T21:08:31.816Z,1.50
2019-03-06T21:10:58.950Z,1.47
2019-03-06T21:13:26.076Z,1.10
2019-03-06T21:15:53.169Z,1.23
2019-03-06T21:18:20.280Z,1.50
2019-03-06T21:20:47.389Z,1.43
2019-03-06T21:23:14.493Z,1.17
2019-03-06T21:25:41.601Z,1.80
2019-03-06T21:28:08.700Z,1.60
2019-03-06T21:30:37.577Z,1.20
2019-03-06T21:33:04.694Z,1.37
2019-03-06T21:35:31.816Z,1.40
2019-03-06T21:37:58.897Z,1.50
2019-03-06T21:40:26.041Z,1.60
2019-03-06T21:42:53.143Z,1.63
2019-03-06T21:45:20.248Z,1.63
2019-03-06T21:47:47.371Z,1.50
2019-03-06T21:50:14.493Z,1.60
2019-03-06T21:52:41.645Z,1.07
2019-03-06T21:55:10.374Z,1.70
2019-03-06T21:57:37.499Z,1.50
2019-03-06T22:00:04.846Z,1.03
2019-03-06T22:02:31.946Z,1.47
2019-03-06T22:04:59.037Z,1.70
2019-03-06T22:07:26.138Z,1.60
2019-03-06T22:09:53.233Z,1.30
2019-03-06T22:12:20.392Z,1.50
2019-03-06T22:14:47.503Z,1.70
2019-03-06T22:17:14.641Z,1.53
2019-03-06T22:19:41.745Z,1.40
2019-03-06T22:22:08.825Z,1.50
2019-03-06T22:24:35.921Z,1.60
2019-03-06T22:27:03.042Z,1.80
2019-03-06T22:29:30.154Z,1.40
2019-03-06T22:31:57.259Z,1.53
2019-03-06T22:34:24.348Z,1.50
2019-03-06T22:36:51.452Z,1.90
2019-03-06T22:39:18.561Z,1.47
2019-03-06T22:41:45.685Z,1.73
2019-03-06T22:44:12.779Z,1.20
2019-03-06T22:46:39.859Z,1.83
2019-03-06T22:49:06.979Z,1.40
2019-03-06T22:51:34.097Z,1.37
2019-03-06T22:54:01.205Z,1.60
2019-03-06T22:56:28.297Z,1.47
2019-03-06T22:58:55.390Z,1.40
2019-03-06T23:01:25.282Z,1.60
2019-03-06T23:03:52.897Z,1.53
2019-03-06T23:06:19.986Z,1.73
2019-03-06T23:08:47.120Z,1.50
2019-03-06T23:11:14.200Z,1.40
2019-03-06T23:13:41.309Z,1.30
2019-03-06T23:16:08.414Z,1.60
2019-03-06T23:18:35.530Z,1.80
2019-03-06T23:21:02.624Z,1.37
2019-03-06T23:23:29.754Z,1.80
2019-03-06T23:25:56.886Z,1.20
2019-03-06T23:28:24.008Z,1.73
2019-03-06T23:30:51.108Z,1.60
2019-03-06T23:33:18.193Z,1.40
2019-03-06T23:35:45.313Z,1.80
2019-03-06T23:38:12.406Z,1.47
2019-03-06T23:40:39.490Z,1.70
2019-03-06T23:43:06.605Z,1.40
2019-03-06T23:45:33.721Z,1.33
2019-03-06T23:48:00.820Z,1.73
2019-03-06T23:50:27.901Z,1.47
2019-03-06T23:53:02.860Z,1.50
2019-03-06T23:55:29.996Z,1.50
2019-03-06T23:57:57.196Z,1.40
